• Join FlightAware (Why Join?)
  • Login
  • US Flag 
04:21PM EDT


 

Airport Tracker/Info


-or-


 

Live Flight TrackerFlight Track Log ✈ N2229F ✈ 27-Oct-2013 ✈ KDDH - N07

Flight Track Log - Related Links

Times and Time Zones

All times are in EDT time to prevent confusion due to time zone crossing. See the N2229F flight status page for this flight to view local times or setup timezone preferences in your user account.

Time Position Orientation Groundspeed Altitude Reporting Facility
EDT Latitude Longitude Course Direction KTS MPH feet Rate Location/Type
09:12AM 42.9317 -73.2803 326° Northwest 126 145 2,100  Level Boston Center
09:14AM 42.9667 -73.3122 326° Northwest 129 148 3,300 1,020 Climbing Boston Center
09:14AM 42.9736 -73.3197 322° Northwest 127 146 3,500 900 Climbing Boston Center
09:14AM 42.9892 -73.3431 312° West 135 155 4,200 960 Climbing Boston Center
09:15AM 42.9858 -73.3536 247° West 126 145 4,500 960 Climbing Boston Center
09:16AM 42.9661 -73.3761 220° Southwest 119 137 5,200 840 Climbing Boston Center
09:16AM 42.9628 -73.3853 244° Southwest 119 137 5,400 960 Climbing Boston Center
09:17AM 42.9489 -73.4114 234° Southwest 107 123 6,200 960 Climbing Boston Center
09:17AM 42.9461 -73.4181 240° Southwest 108 124 6,400 660 Climbing Boston Center
09:17AM 42.9350 -73.4417 237° Southwest 102 117 6,800 480 Climbing Boston Center
09:18AM 42.9311 -73.4542 247° West 109 125 6,900 480 Climbing Boston Center
09:19AM 42.9183 -73.4858 241° Southwest 121 139 7,400 540 Climbing Boston Center
09:19AM 42.9144 -73.4944 238° Southwest 121 139 7,500 480 Climbing Boston Center
09:20AM 42.8978 -73.5286 236° Southwest 130 150 7,900 480 Climbing Boston Center
09:20AM 42.8933 -73.5381 237° Southwest 128 147 8,000 180 Climbing Boston Center
09:21AM 42.8753 -73.5708 233° Southwest 137 158 8,100 60 Climbing Boston Center
09:21AM 42.8694 -73.5817 234° Southwest 141 162 8,100  Level Boston Center
09:22AM 42.8500 -73.6147 231° Southwest 159 183 8,100  Level Boston Center
09:22AM 42.8419 -73.6306 235° Southwest 160 184 8,100  Level Boston Center
09:23AM 42.8208 -73.6692 233° Southwest 167 192 8,100  Level Boston Center
09:23AM 42.8147 -73.6806 234° Southwest 164 189 8,100  Level Boston Center
09:24AM 42.7925 -73.7181 231° Southwest 165 190 8,100  Level Boston Center
09:24AM 42.7878 -73.7300 242° Southwest 163 188 8,100  Level Boston Center
09:25AM 42.7603 -73.7769 231° Southwest 167 192 8,100  Level Boston Center
09:25AM 42.7575 -73.7844 243° Southwest 166 191 8,100  Level Boston Center
09:26AM 42.7236 -73.8219 219° Southwest 164 189 8,100  Level Boston Center
09:27AM 42.6900 -73.8436 205° Southwest 174 200 8,100  Level Boston Center
09:27AM 42.6786 -73.8519 208° Southwest 174 200 8,100  Level Boston Center
09:28AM 42.6481 -73.8731 207° Southwest 172 198 8,100  Level Boston Center
09:28AM 42.6369 -73.8828 213° Southwest 171 197 8,100  Level Boston Center
09:29AM 42.6058 -73.9053 208° Southwest 173 199 8,100  Level Boston Center
09:29AM 42.5947 -73.9158 215° Southwest 174 200 8,100  Level Boston Center
09:30AM 42.5622 -73.9428 211° Southwest 173 199 8,100  Level Boston Center
09:30AM 42.5531 -73.9481 203° Southwest 173 199 8,100  Level Boston Center
09:31AM 42.5197 -73.9750 211° Southwest 174 200 8,100  Level Boston Center
09:31AM 42.5108 -73.9803 204° Southwest 174 200 8,100  Level Boston Center
09:32AM 42.4758 -74.0036 206° Southwest 175 201 8,100  Level Boston Center
09:32AM 42.4647 -74.0133 213° Southwest 174 200 8,100  Level Boston Center
09:33AM 42.4308 -74.0375 208° Southwest 176 203 8,100  Level Boston Center
09:33AM 42.4206 -74.0453 209° Southwest 179 206 8,100  Level Boston Center
09:34AM 42.3856 -74.0714 209° Southwest 182 209 8,100  Level Boston Center
09:34AM 42.3764 -74.0772 205° Southwest 181 208 8,100  Level Boston Center
09:35AM 42.3456 -74.1014 210° Southwest 183 211 8,100  Level Boston Center
09:35AM 42.3325 -74.1097 205° Southwest 180 207 8,100  Level Boston Center
09:36AM 42.2853 -74.1442 208° Southwest 185 213 8,100  Level Boston Center
09:37AM 42.2433 -74.1756 209° Southwest 172 198 8,100  Level Boston Center
09:38AM 42.1992 -74.2069 208° Southwest 169 194 8,100 -60 Level Boston Center
09:39AM 42.1564 -74.2389 209° Southwest 176 203 8,000  Descending Boston Center
09:40AM 42.1144 -74.2692 208° Southwest 172 198 8,100  Climbing Boston Center
09:41AM 42.0719 -74.3025 210° Southwest 176 203 8,000  Descending Boston Center
09:42AM 42.0275 -74.3353 209° Southwest 182 209 8,100  Climbing Boston Center
09:43AM 41.9778 -74.3700 207° Southwest 189 217 8,000 -60 Descending Boston Center
09:44AM 41.9353 -74.3989 207° Southwest 175 201 8,000  Level Boston Center
09:45AM 41.8936 -74.4275 207° Southwest 169 194 8,100  Climbing Boston Center
09:46AM 41.8522 -74.4594 210° Southwest 172 198 8,000 -60 Descending Boston Center
09:47AM 41.8064 -74.4925 208° Southwest 174 200 8,000  Level Boston Center
09:48AM 41.7644 -74.5219 208° Southwest 172 198 8,100  Climbing Boston Center
09:49AM 41.7142 -74.5339 190° South 187 215 8,000 -60 Descending Boston Center
09:50AM 41.6633 -74.5422 187° South 186 214 8,000  Level Boston Center
09:51AM 41.6142 -74.5503 187° South 180 207 8,000 -240 Level Boston Center
09:52AM 41.5606 -74.5617 189° South 182 209 7,600 -420 Descending Boston Center
09:53AM 41.5078 -74.5733 189° South 191 220 7,200 -480 Descending Boston Center
09:54AM 41.4556 -74.5847 189° South 191 220 6,700 -480 Descending Boston Center
09:55AM 41.4019 -74.5936 187° South 194 223 6,300 -360 Descending Boston Center
09:56AM 41.3500 -74.6167 198° South 198 228 6,100 -120 Descending New York TRACON
09:57AM 41.3000 -74.6333 194° South 180 207 6,100  Level New York TRACON
09:58AM 41.2500 -74.6333 180° South 186 214 6,100 -240 Level New York TRACON
09:59AM 41.2000 -74.6167 166° South 193 222 5,700 -480 Descending New York TRACON
10:00AM 41.1500 -74.6000 166° South 194 223 5,200 -540 Descending New York TRACON
10:01AM 41.1000 -74.6000 180° South 194 223 4,700 -480 Descending New York TRACON
10:02AM 41.0667 -74.5500 131° Southeast 201 231 4,300 -360 Descending New York TRACON
10:03AM 41.0333 -74.4833 124° Southeast 186 214 4,000 -480 Descending New York TRACON
10:04AM 41.0167 -74.4333 114° Southeast 176 203 3,500 -600 Descending New York TRACON
10:05AM 40.9833 -74.3833 131° Southeast 167 192 2,900 -720 Descending New York TRACON
10:06AM 40.9667 -74.3333 114° Southeast 167 192 2,100 -840 Descending New York TRACON
10:08AM 40.9475 -74.3145 128° Southeast  Level Estimated
10:15AM 40.9475 -74.3145 128° Southeast  Level Estimated
10:16AM 40.9475 -74.3145 128° Southeast  Level Estimated
10:17AM 40.9475 -74.3145 128° Southeast  Level Estimated